createdAt,value
2019-02-21T00:01:01.808Z,16.77
2019-02-21T00:03:30.039Z,16.95
2019-02-21T00:05:58.300Z,16.37
2019-02-21T00:08:26.610Z,16.00
2019-02-21T00:10:54.908Z,16.95
2019-02-21T00:13:23.130Z,15.38
2019-02-21T00:15:51.373Z,15.80
2019-02-21T00:18:20.423Z,15.85
2019-02-21T00:20:48.680Z,16.50
2019-02-21T00:23:16.907Z,16.07
2019-02-21T00:25:46.851Z,15.70
2019-02-21T00:28:15.153Z,16.32
2019-02-21T00:30:43.571Z,15.83
2019-02-21T00:33:12.327Z,16.42
2019-02-21T00:35:40.786Z,16.07
2019-02-21T00:38:09.329Z,14.58
2019-02-21T00:40:38.848Z,16.48
2019-02-21T00:43:07.271Z,16.52
2019-02-21T00:45:35.677Z,14.87
2019-02-21T00:48:04.568Z,15.63
2019-02-21T00:50:33.063Z,15.18
2019-02-21T00:53:01.506Z,16.07
2019-02-21T00:55:29.958Z,15.30
2019-02-21T00:57:59.357Z,18.25
2019-02-21T01:00:27.820Z,16.20
2019-02-21T01:02:56.246Z,16.02
2019-02-21T01:05:25.311Z,15.45
2019-02-21T01:07:53.750Z,15.18
2019-02-21T01:10:22.244Z,15.48
2019-02-21T01:12:50.810Z,14.93
2019-02-21T01:15:19.226Z,18.25
2019-02-21T01:17:47.653Z,16.48
2019-02-21T01:20:16.530Z,15.32
2019-02-21T01:22:44.951Z,14.78
2019-02-21T01:25:13.455Z,14.40
2019-02-21T01:27:42.477Z,14.10
2019-02-21T01:30:10.953Z,16.57
2019-02-21T01:32:39.373Z,14.45
2019-02-21T01:35:08.797Z,15.88
2019-02-21T01:37:37.250Z,14.85
2019-02-21T01:40:10.155Z,16.05
2019-02-21T01:42:38.580Z,15.05
2019-02-21T01:45:08.464Z,15.05
2019-02-21T01:47:38.410Z,15.78
2019-02-21T01:50:14.478Z,14.90
2019-02-21T01:52:42.995Z,16.25
2019-02-21T01:55:11.496Z,14.85
2019-02-21T01:57:39.984Z,15.65
2019-02-21T02:00:12.686Z,15.50
2019-02-21T02:02:41.193Z,14.58
2019-02-21T02:05:09.782Z,15.78
2019-02-21T02:07:39.070Z,15.85
2019-02-21T02:10:09.434Z,15.18
2019-02-21T02:12:37.878Z,15.45
2019-02-21T02:15:08.642Z,15.48
2019-02-21T02:17:37.078Z,15.35
2019-02-21T02:20:07.358Z,16.65
2019-02-21T02:22:36.446Z,17.37
2019-02-21T02:25:05.607Z,15.35
2019-02-21T02:27:38.194Z,15.40
2019-02-21T02:30:08.403Z,15.85
2019-02-21T02:32:36.890Z,15.05
2019-02-21T02:35:06.639Z,16.23
2019-02-21T02:37:35.833Z,16.20
2019-02-21T02:40:04.614Z,15.38
2019-02-21T02:42:33.118Z,16.23
2019-02-21T02:45:02.795Z,16.07
2019-02-21T02:47:31.243Z,15.45
2019-02-21T02:49:59.655Z,16.00
2019-02-21T02:52:28.122Z,17.32
2019-02-21T02:54:57.960Z,16.35
2019-02-21T02:57:26.423Z,16.55
2019-02-21T02:59:54.856Z,16.35
2019-02-21T03:02:23.273Z,16.27
2019-02-21T03:04:52.342Z,16.90
2019-02-21T03:07:22.182Z,16.57
2019-02-21T03:09:50.682Z,16.05
2019-02-21T03:12:19.214Z,16.80
2019-02-21T03:14:47.655Z,16.97
2019-02-21T03:17:16.090Z,15.60
2019-02-21T03:19:44.535Z,14.65
2019-02-21T03:22:13.965Z,16.90
2019-02-21T03:24:42.390Z,16.17
2019-02-21T03:27:10.833Z,16.20
2019-02-21T03:29:39.318Z,16.00
2019-02-21T03:32:07.758Z,15.95
2019-02-21T03:34:36.558Z,15.85
2019-02-21T03:37:05.050Z,16.50
2019-02-21T03:39:34.965Z,16.15
2019-02-21T03:42:03.561Z,15.43
2019-02-21T03:44:31.986Z,17.20
2019-02-21T03:47:00.449Z,15.43
2019-02-21T03:49:28.989Z,14.83
2019-02-21T03:51:57.400Z,16.52
2019-02-21T03:54:25.819Z,15.45
2019-02-21T03:56:54.305Z,16.50
2019-02-21T03:59:22.799Z,16.27
2019-02-21T04:01:51.297Z,16.15
2019-02-21T04:04:19.792Z,15.53
2019-02-21T04:06:48.535Z,17.80
2019-02-21T04:09:16.956Z,15.13
2019-02-21T04:11:48.287Z,15.32
2019-02-21T04:14:17.155Z,12.05
2019-02-21T04:16:45.670Z,16.80
2019-02-21T04:19:14.108Z,16.52
2019-02-21T04:21:42.687Z,16.85
2019-02-21T04:24:11.100Z,16.40
2019-02-21T04:26:39.512Z,17.90
2019-02-21T04:29:07.927Z,16.37
2019-02-21T04:31:36.359Z,16.77
2019-02-21T04:34:04.799Z,17.60
2019-02-21T04:36:33.365Z,17.12
2019-02-21T04:39:01.785Z,16.40
2019-02-21T04:41:30.891Z,15.90
2019-02-21T04:43:59.308Z,15.72
2019-02-21T04:46:27.722Z,18.37
2019-02-21T04:48:56.248Z,16.57
2019-02-21T04:51:24.704Z,17.17
2019-02-21T04:53:53.182Z,16.55
2019-02-21T04:56:22.023Z,17.77
2019-02-21T04:58:50.463Z,18.27
2019-02-21T05:01:18.892Z,16.87
2019-02-21T05:03:47.326Z,18.37
2019-02-21T05:06:16.396Z,19.65
2019-02-21T05:08:44.818Z,18.30
2019-02-21T05:11:13.238Z,16.57
2019-02-21T05:13:41.767Z,17.23
2019-02-21T05:16:10.199Z,17.92
2019-02-21T05:18:38.610Z,17.60
2019-02-21T05:21:07.043Z,17.57
2019-02-21T05:23:36.764Z,18.77
2019-02-21T05:26:06.156Z,17.12
2019-02-21T05:28:34.582Z,19.00
2019-02-21T05:31:08.405Z,18.57
2019-02-21T05:33:47.998Z,17.92
2019-02-21T05:36:24.274Z,18.07
2019-02-21T05:38:56.157Z,17.90
2019-02-21T05:41:26.263Z,19.20
2019-02-21T05:44:13.133Z,22.45
2019-02-21T05:46:43.267Z,19.62
2019-02-21T05:49:22.293Z,18.12
2019-02-21T05:51:59.000Z,18.80
2019-02-21T05:54:29.130Z,18.50
2019-02-21T05:57:02.929Z,17.45
2019-02-21T05:59:35.645Z,18.77
2019-02-21T06:02:09.063Z,19.32
2019-02-21T06:04:48.118Z,18.00
2019-02-21T06:07:20.153Z,19.90
2019-02-21T06:12:33.498Z,17.65
2019-02-21T06:14:57.413Z,18.48
2019-02-21T06:17:34.296Z,18.55
2019-02-21T06:20:17.972Z,18.92
2019-02-21T06:22:48.308Z,20.48
2019-02-21T06:25:18.555Z,18.92
2019-02-21T06:27:49.972Z,17.82
2019-02-21T06:30:20.151Z,19.73
2019-02-21T06:32:48.559Z,19.32
2019-02-21T06:35:17.006Z,19.37
2019-02-21T06:37:45.491Z,19.75
2019-02-21T06:40:13.920Z,19.95
2019-02-21T06:42:42.436Z,19.07
2019-02-21T06:45:11.489Z,18.15
2019-02-21T06:47:40.046Z,19.98
2019-02-21T06:50:08.670Z,20.60
2019-02-21T06:52:37.110Z,19.15
2019-02-21T06:55:06.163Z,20.08
2019-02-21T06:57:34.586Z,19.85
2019-02-21T07:00:03.206Z,20.30
2019-02-21T07:02:33.732Z,19.50
2019-02-21T07:05:05.491Z,20.10
2019-02-21T07:07:34.021Z,19.62
2019-02-21T07:10:02.560Z,20.90
2019-02-21T07:12:31.083Z,20.60
2019-02-21T07:14:59.506Z,19.45
2019-02-21T07:17:30.619Z,19.00
2019-02-21T07:19:59.135Z,20.83
2019-02-21T07:22:27.951Z,19.12
2019-02-21T07:24:58.146Z,19.23
2019-02-21T07:27:28.057Z,20.40
2019-02-21T07:29:56.593Z,20.88
2019-02-21T07:32:25.771Z,20.23
2019-02-21T07:34:54.346Z,17.90
2019-02-21T07:37:25.963Z,18.52
2019-02-21T07:39:54.505Z,20.75
2019-02-21T07:42:23.026Z,19.17
2019-02-21T07:44:51.492Z,21.68
2019-02-21T07:47:20.213Z,18.85
2019-02-21T07:49:49.002Z,21.02
2019-02-21T07:52:17.505Z,21.23
2019-02-21T07:54:46.026Z,20.65
2019-02-21T07:57:14.555Z,21.60
2019-02-21T07:59:43.074Z,19.30
2019-02-21T08:02:11.665Z,19.75
2019-02-21T08:04:41.792Z,20.48
2019-02-21T08:07:11.917Z,20.17
2019-02-21T08:09:41.710Z,21.23
2019-02-21T08:12:10.422Z,20.30
2019-02-21T08:14:38.960Z,21.10
2019-02-21T08:17:07.697Z,20.95
2019-02-21T08:19:36.105Z,20.62
2019-02-21T08:22:04.587Z,20.10
2019-02-21T08:24:33.106Z,23.15
2019-02-21T08:27:01.523Z,18.40
2019-02-21T08:29:29.926Z,21.35
2019-02-21T08:31:58.433Z,21.68
2019-02-21T08:34:36.658Z,21.40
2019-02-21T08:37:05.062Z,21.45
2019-02-21T08:39:33.470Z,20.85
2019-02-21T08:42:04.897Z,21.87
2019-02-21T08:44:33.381Z,22.32
2019-02-21T08:47:01.867Z,21.62
2019-02-21T08:49:31.338Z,21.82
2019-02-21T08:52:01.397Z,20.32
2019-02-21T08:54:29.820Z,26.02
2019-02-21T08:57:02.118Z,21.75
2019-02-21T08:59:30.652Z,23.60
2019-02-21T09:01:59.080Z,23.47
2019-02-21T09:04:28.125Z,24.75
2019-02-21T09:06:56.783Z,23.80
2019-02-21T09:09:25.525Z,20.32
2019-02-21T09:11:54.060Z,23.67
2019-02-21T09:14:22.486Z,23.83
2019-02-21T09:16:50.897Z,23.83
2019-02-21T09:19:21.779Z,23.70
2019-02-21T09:21:50.242Z,24.92
2019-02-21T09:24:37.844Z,21.77
2019-02-21T09:26:48.834Z,22.95
2019-02-21T09:29:17.322Z,23.75
2019-02-21T09:31:45.908Z,26.23
2019-02-21T09:34:26.357Z,26.07
2019-02-21T09:36:54.795Z,25.85
2019-02-21T09:39:23.226Z,26.07
2019-02-21T09:41:54.119Z,25.77
2019-02-21T09:44:22.690Z,22.85
2019-02-21T09:46:51.539Z,25.77
2019-02-21T09:49:19.966Z,25.12
2019-02-21T09:51:48.771Z,25.95
2019-02-21T09:54:19.741Z,26.40
2019-02-21T09:56:52.832Z,24.12
2019-02-21T09:59:18.657Z,24.47
2019-02-21T10:01:47.080Z,26.15
2019-02-21T10:04:15.709Z,26.12
2019-02-21T10:06:44.129Z,27.05
2019-02-21T10:09:12.914Z,26.25
2019-02-21T10:11:41.511Z,27.27
2019-02-21T10:14:10.120Z,27.05
2019-02-21T10:16:38.554Z,27.55
2019-02-21T10:19:07.214Z,27.62
2019-02-21T10:21:35.618Z,41.08
2019-02-21T10:24:04.224Z,28.10
2019-02-21T10:26:32.910Z,28.32
2019-02-21T10:29:01.630Z,27.85
2019-02-21T10:31:30.051Z,28.57
2019-02-21T10:33:58.709Z,27.05
2019-02-21T10:36:27.324Z,29.60
2019-02-21T10:38:55.828Z,28.15
2019-02-21T10:41:24.251Z,28.23
2019-02-21T10:43:52.873Z,30.30
2019-02-21T10:46:21.579Z,28.20
2019-02-21T10:48:50.007Z,29.55
2019-02-21T10:51:18.408Z,28.17
2019-02-21T10:53:48.696Z,29.72
2019-02-21T10:56:17.606Z,29.40
2019-02-21T10:58:46.091Z,28.52
2019-02-21T11:01:14.733Z,29.37
2019-02-21T11:03:43.203Z,28.85
2019-02-21T11:06:11.861Z,29.77
2019-02-21T11:08:40.397Z,29.42
2019-02-21T11:11:10.106Z,29.63
2019-02-21T11:13:38.515Z,28.70
2019-02-21T11:16:07.111Z,28.75
2019-02-21T11:18:35.626Z,27.95
2019-02-21T11:21:04.106Z,28.80
2019-02-21T11:23:32.534Z,28.50
2019-02-21T11:26:01.056Z,27.25
2019-02-21T11:28:29.500Z,27.95
2019-02-21T11:30:57.930Z,27.00
2019-02-21T11:33:26.599Z,27.00
2019-02-21T11:35:55.212Z,27.13
2019-02-21T11:38:23.645Z,27.48
2019-02-21T11:40:52.165Z,29.20
2019-02-21T11:43:20.841Z,26.70
2019-02-21T11:45:55.115Z,25.75
2019-02-21T11:48:19.493Z,27.55
2019-02-21T11:50:48.094Z,26.95
2019-02-21T11:53:16.641Z,27.87
2019-02-21T11:55:45.622Z,26.33
2019-02-21T11:58:14.295Z,23.00
2019-02-21T12:00:42.786Z,25.27
2019-02-21T12:03:11.205Z,23.62
2019-02-21T12:05:39.642Z,22.85
2019-02-21T12:08:08.211Z,21.68
2019-02-21T12:10:36.734Z,22.50
2019-02-21T12:13:05.265Z,22.02
2019-02-21T12:15:33.733Z,20.97
2019-02-21T12:18:03.967Z,21.40
2019-02-21T12:20:32.409Z,20.70
2019-02-21T12:23:01.162Z,19.07
2019-02-21T12:25:29.766Z,20.08
2019-02-21T12:27:58.227Z,19.92
2019-02-21T12:30:27.015Z,19.30
2019-02-21T12:32:55.509Z,18.62
2019-02-21T12:35:29.712Z,19.45
2019-02-21T12:37:54.065Z,19.07
2019-02-21T12:40:23.383Z,20.15
2019-02-21T12:42:51.921Z,18.90
2019-02-21T12:45:25.018Z,18.75
2019-02-21T12:47:54.214Z,18.90
2019-02-21T12:50:22.940Z,19.50
2019-02-21T12:52:51.354Z,19.95
2019-02-21T12:55:27.994Z,18.70
2019-02-21T12:57:50.508Z,18.70
2019-02-21T13:00:22.840Z,17.70
2019-02-21T13:02:51.515Z,19.57
2019-02-21T13:05:20.122Z,17.73
2019-02-21T13:07:48.626Z,18.02
2019-02-21T13:10:19.327Z,17.42
2019-02-21T13:12:47.895Z,17.73
2019-02-21T13:15:16.397Z,16.07
2019-02-21T13:17:44.902Z,15.63
2019-02-21T13:20:14.817Z,15.63
2019-02-21T13:22:43.370Z,14.90
2019-02-21T13:25:14.065Z,15.43
2019-02-21T13:27:42.639Z,15.58
2019-02-21T13:30:14.385Z,16.50
2019-02-21T13:32:43.081Z,15.30
2019-02-21T13:35:13.389Z,13.55
2019-02-21T13:37:42.392Z,15.48
2019-02-21T13:40:20.131Z,14.83
2019-02-21T13:42:47.692Z,15.70
2019-02-21T13:45:19.017Z,15.30
2019-02-21T13:47:47.430Z,15.63
2019-02-21T13:50:18.995Z,17.67
2019-02-21T13:52:47.640Z,15.80
2019-02-21T13:55:16.089Z,16.50
2019-02-21T13:57:44.558Z,18.07
2019-02-21T14:00:16.248Z,16.80
2019-02-21T14:02:45.185Z,17.70
2019-02-21T14:05:14.262Z,18.20
2019-02-21T14:07:42.730Z,18.23
2019-02-21T14:10:13.007Z,18.48
2019-02-21T14:12:41.559Z,18.82
2019-02-21T14:15:18.820Z,20.12
2019-02-21T14:17:47.414Z,19.67
2019-02-21T14:20:15.937Z,19.25
2019-02-21T14:22:44.363Z,20.05
2019-02-21T14:25:13.107Z,19.48
2019-02-21T14:27:41.536Z,19.40
2019-02-21T14:30:12.985Z,19.52
2019-02-21T14:32:41.481Z,20.62
2019-02-21T14:35:13.892Z,23.55
2019-02-21T14:37:42.405Z,26.45
2019-02-21T14:40:12.810Z,22.77
2019-02-21T14:42:41.539Z,22.73
2019-02-21T14:45:21.150Z,22.48
2019-02-21T14:47:49.670Z,21.77
2019-02-21T14:50:18.215Z,22.32
2019-02-21T14:52:46.803Z,21.87
2019-02-21T14:55:16.588Z,21.90
2019-02-21T14:57:45.029Z,22.58
2019-02-21T15:00:18.885Z,22.55
2019-02-21T15:02:47.404Z,23.12
2019-02-21T15:05:15.976Z,21.30
2019-02-21T15:07:44.394Z,21.37
2019-02-21T15:10:12.957Z,21.25
2019-02-21T15:12:41.396Z,22.75
2019-02-21T15:15:18.879Z,23.02
2019-02-21T15:17:47.304Z,22.05
2019-02-21T15:20:20.746Z,22.07
2019-02-21T15:22:49.182Z,21.77
2019-02-21T15:25:17.772Z,22.00
2019-02-21T15:27:46.250Z,22.20
2019-02-21T15:30:22.502Z,21.60
2019-02-21T15:32:50.973Z,22.37
2019-02-21T15:35:19.804Z,31.87
2019-02-21T15:37:48.730Z,23.47
2019-02-21T15:40:18.811Z,22.50
2019-02-21T15:42:47.235Z,22.70
2019-02-21T15:45:23.465Z,22.70
2019-02-21T15:47:50.855Z,22.17
2019-02-21T15:50:20.124Z,22.62
2019-02-21T15:52:49.300Z,23.32
2019-02-21T15:55:19.665Z,23.73
2019-02-21T15:57:48.159Z,23.75
2019-02-21T16:00:18.785Z,22.85
2019-02-21T16:02:47.402Z,23.18
2019-02-21T16:05:15.904Z,22.98
2019-02-21T16:07:44.474Z,21.68
2019-02-21T16:10:15.968Z,24.05
2019-02-21T16:12:44.968Z,24.10
2019-02-21T16:15:16.530Z,25.68
2019-02-21T16:17:46.788Z,23.75
2019-02-21T16:20:17.182Z,22.65
2019-02-21T16:22:46.909Z,22.80
2019-02-21T16:25:18.405Z,21.80
2019-02-21T16:27:46.830Z,23.40
2019-02-21T16:30:16.343Z,23.52
2019-02-21T16:32:44.889Z,23.50
2019-02-21T16:35:14.945Z,24.43
2019-02-21T16:37:43.469Z,24.98
2019-02-21T16:40:17.015Z,25.32
2019-02-21T16:42:46.039Z,24.63
2019-02-21T16:45:16.137Z,24.45
2019-02-21T16:47:44.722Z,25.37
2019-02-21T16:50:14.484Z,25.48
2019-02-21T16:52:43.029Z,25.30
2019-02-21T16:55:16.773Z,24.43
2019-02-21T16:57:47.399Z,24.95
2019-02-21T17:00:18.349Z,30.92
2019-02-21T17:02:46.924Z,25.75
2019-02-21T17:05:15.983Z,26.85
2019-02-21T17:07:44.408Z,26.40
2019-02-21T17:10:17.519Z,27.17
2019-02-21T17:12:46.193Z,23.52
2019-02-21T17:15:16.797Z,24.18
2019-02-21T17:17:45.356Z,25.40
2019-02-21T17:20:15.959Z,24.65
2019-02-21T17:22:44.519Z,23.62
2019-02-21T17:25:14.821Z,22.82
2019-02-21T17:27:44.489Z,22.50
2019-02-21T17:30:15.673Z,76.65
2019-02-21T17:32:44.105Z,33.33
2019-02-21T17:35:12.718Z,27.65
2019-02-21T17:37:42.700Z,23.05
2019-02-21T17:40:19.856Z,22.85
2019-02-21T17:42:48.711Z,23.90
2019-02-21T17:45:17.406Z,22.65
2019-02-21T17:47:46.252Z,23.05
2019-02-21T17:50:19.217Z,23.75
2019-02-21T17:52:47.754Z,23.12
2019-02-21T17:55:16.949Z,23.62
2019-02-21T17:57:45.474Z,25.00
2019-02-21T18:00:17.458Z,25.60
2019-02-21T18:05:13.767Z,24.77
2019-02-21T18:07:44.566Z,23.87
2019-02-21T18:10:27.578Z,24.87
2019-02-21T18:12:56.114Z,25.43
2019-02-21T18:15:24.783Z,25.92
2019-02-21T18:17:53.210Z,26.23
2019-02-21T18:20:21.966Z,26.42
2019-02-21T18:22:50.844Z,28.40
2019-02-21T18:25:35.462Z,26.77
2019-02-21T18:28:03.949Z,27.87
2019-02-21T18:30:35.616Z,27.17
2019-02-21T18:33:04.267Z,27.27
2019-02-21T18:35:33.008Z,27.07
2019-02-21T18:38:01.725Z,29.02
2019-02-21T18:40:30.428Z,38.50
2019-02-21T18:42:59.966Z,39.35
2019-02-21T18:45:28.737Z,31.68
2019-02-21T18:47:57.367Z,30.08
2019-02-21T18:50:37.356Z,30.25
2019-02-21T18:52:56.303Z,28.67
2019-02-21T18:55:25.168Z,30.60
2019-02-21T18:57:53.692Z,28.90
2019-02-21T19:00:24.625Z,30.08
2019-02-21T19:02:53.356Z,29.90
2019-02-21T19:05:22.113Z,28.83
2019-02-21T19:08:00.508Z,29.72
2019-02-21T19:10:22.165Z,27.02
2019-02-21T19:12:50.852Z,30.50
2019-02-21T19:15:20.631Z,30.72
2019-02-21T19:17:49.396Z,29.45
2019-02-21T19:20:19.269Z,29.15
2019-02-21T19:22:47.745Z,29.67
2019-02-21T19:25:16.577Z,55.95
2019-02-21T19:27:45.105Z,67.90
2019-02-21T19:30:34.784Z,34.27
2019-02-21T19:33:03.538Z,29.15
2019-02-21T19:35:32.198Z,30.90
2019-02-21T19:38:09.778Z,30.85
2019-02-21T19:40:30.942Z,31.15
2019-02-21T19:42:59.518Z,29.95
2019-02-21T19:45:28.257Z,31.37
2019-02-21T19:47:56.882Z,33.95
2019-02-21T19:50:26.033Z,34.43
2019-02-21T19:52:54.681Z,32.50
2019-02-21T19:55:23.371Z,32.88
2019-02-21T19:57:53.136Z,77.60
2019-02-21T20:00:24.803Z,63.90
2019-02-21T20:02:53.406Z,32.25
2019-02-21T20:05:22.267Z,32.67
2019-02-21T20:07:53.527Z,38.83
2019-02-21T20:10:22.284Z,36.35
2019-02-21T20:12:50.930Z,35.43
2019-02-21T20:15:23.658Z,34.88
2019-02-21T20:17:52.088Z,33.78
2019-02-21T20:20:23.490Z,35.58
2019-02-21T20:22:52.159Z,34.38
2019-02-21T20:25:20.647Z,35.43
2019-02-21T20:27:49.219Z,35.28
2019-02-21T20:30:20.075Z,44.35
2019-02-21T20:32:48.681Z,50.03
2019-02-21T20:35:17.480Z,49.90
2019-02-21T20:37:46.341Z,51.55
2019-02-21T20:40:17.933Z,52.38
2019-02-21T20:42:46.382Z,50.75
2019-02-21T20:45:15.889Z,45.40
2019-02-21T20:47:44.635Z,44.75
2019-02-21T20:50:13.959Z,43.80
2019-02-21T20:52:42.854Z,42.43
2019-02-21T20:55:13.830Z,152.00
2019-02-21T20:57:42.752Z,37.45
2019-02-21T21:00:13.920Z,35.70
2019-02-21T21:02:42.554Z,34.70
2019-02-21T21:05:12.578Z,35.60
2019-02-21T21:07:41.394Z,34.63
2019-02-21T21:10:16.922Z,33.95
2019-02-21T21:12:45.915Z,31.62
2019-02-21T21:15:14.878Z,31.57
2019-02-21T21:17:43.529Z,32.50
2019-02-21T21:20:16.840Z,32.60
2019-02-21T21:22:44.806Z,32.93
2019-02-21T21:25:19.277Z,36.35
2019-02-21T21:27:47.891Z,35.60
2019-02-21T21:30:17.520Z,35.30
2019-02-21T21:32:46.121Z,36.00
2019-02-21T21:35:15.435Z,32.73
2019-02-21T21:37:43.931Z,34.20
2019-02-21T21:40:14.813Z,32.78
2019-02-21T21:42:43.407Z,33.23
2019-02-21T21:45:14.507Z,33.48
2019-02-21T21:47:43.121Z,34.05
2019-02-21T21:50:14.883Z,34.25
2019-02-21T21:52:43.325Z,34.73
2019-02-21T21:55:11.890Z,34.27
2019-02-21T21:57:40.458Z,36.42
2019-02-21T22:00:11.946Z,38.48
2019-02-21T22:02:41.602Z,39.45
2019-02-21T22:05:10.213Z,38.58
2019-02-21T22:07:38.750Z,42.15
2019-02-21T22:10:10.424Z,38.00
2019-02-21T22:12:38.975Z,38.80
2019-02-21T22:15:12.025Z,39.35
2019-02-21T22:17:42.207Z,41.65
2019-02-21T22:20:12.115Z,42.30
2019-02-21T22:22:41.987Z,43.45
2019-02-21T22:25:14.206Z,43.42
2019-02-21T22:27:42.868Z,47.98
2019-02-21T22:30:14.457Z,45.80
2019-02-21T22:32:42.993Z,45.35
2019-02-21T22:35:11.667Z,44.93
2019-02-21T22:37:40.901Z,45.70
2019-02-21T22:40:14.654Z,46.00
2019-02-21T22:42:43.084Z,45.15
2019-02-21T22:45:11.707Z,43.50
2019-02-21T22:47:40.197Z,45.92
2019-02-21T22:50:11.948Z,43.48
2019-02-21T22:52:41.212Z,42.95
2019-02-21T22:55:10.470Z,41.63
2019-02-21T22:57:39.272Z,42.40
2019-02-21T23:00:31.973Z,41.20
2019-02-21T23:03:01.545Z,41.63
2019-02-21T23:05:55.426Z,41.92
2019-02-21T23:08:41.882Z,42.67
2019-02-21T23:11:11.189Z,43.80
2019-02-21T23:13:40.917Z,43.23
2019-02-21T23:16:10.931Z,45.25
2019-02-21T23:18:39.582Z,45.12
2019-02-21T23:21:08.310Z,45.30
2019-02-21T23:23:38.139Z,45.30
2019-02-21T23:26:06.647Z,46.70
2019-02-21T23:28:35.075Z,45.15
2019-02-21T23:31:03.575Z,49.18
2019-02-21T23:33:33.748Z,47.00
2019-02-21T23:36:03.055Z,47.98
2019-02-21T23:38:31.482Z,50.00
2019-02-21T23:41:00.037Z,53.13
2019-02-21T23:43:28.559Z,51.45
2019-02-21T23:45:57.044Z,48.40
2019-02-21T23:48:25.446Z,49.40
2019-02-21T23:50:53.872Z,63.48
2019-02-21T23:53:23.630Z,54.93
2019-02-21T23:55:52.246Z,48.40
2019-02-21T23:58:20.675Z,45.45
